Time;durP1;ratioP1;P1;durP2;ratioP2;P2;SDS_P1;SDS_P2;PMS_P1;PMS_P2;Temp;Humidity;BMP_temperature;BMP_pressure;BME280_temperature;BME280_humidity;BME280_pressure;Samples;Min_cycle;Max_cycle;Signal;HPM_P1;HPM_P2
2021/12/30 00:00:40;;;;;;;6.43;3.47;;;;;;;3.69;100.00;94324.00;5076112;28;20425;-63
2021/12/30 00:03:08;;;;;;;7.78;4.22;;;;;;;3.68;100.00;94323.22;5071015;28;20051;-62
2021/12/30 00:05:35;;;;;;;6.07;3.53;;;;;;;3.74;100.00;94327.56;5072401;28;20047;-62
2021/12/30 00:08:03;;;;;;;8.52;4.10;;;;;;;3.73;100.00;94325.22;5071638;28;20044;-62
2021/12/30 00:10:30;;;;;;;7.30;4.10;;;;;;;3.74;100.00;94329.34;5071917;28;20044;-62
2021/12/30 00:12:57;;;;;;;10.27;4.07;;;;;;;3.77;100.00;94326.38;5068909;28;20101;-62
2021/12/30 00:15:25;;;;;;;6.65;4.30;;;;;;;3.78;100.00;94322.81;5073428;28;20522;-62
2021/12/30 00:17:52;;;;;;;8.13;4.20;;;;;;;3.81;100.00;94322.41;5075086;28;20048;-62
2021/12/30 00:20:20;;;;;;;8.75;4.72;;;;;;;3.79;100.00;94320.03;5075640;28;20050;-62
2021/12/30 00:22:47;;;;;;;9.02;4.93;;;;;;;3.77;100.00;94321.25;5076190;28;20123;-62
2021/12/30 00:25:15;;;;;;;10.50;6.03;;;;;;;3.84;100.00;94327.19;5075038;28;20045;-63
2021/12/30 00:27:42;;;;;;;7.25;4.28;;;;;;;3.82;100.00;94324.00;5073675;28;20048;-63
2021/12/30 00:30:10;;;;;;;11.82;6.65;;;;;;;3.77;100.00;94326.38;5068140;28;20513;-63
2021/12/30 00:32:37;;;;;;;11.48;6.05;;;;;;;3.82;100.00;94334.31;5078046;28;20043;-63
2021/12/30 00:35:10;;;;;;;8.00;4.60;;;;;;;3.82;100.00;94334.31;5072659;28;20068;-62
2021/12/30 00:37:38;;;;;;;10.05;5.28;;;;;;;3.80;100.00;94339.66;5075197;28;20441;-62
2021/12/30 00:40:06;;;;;;;8.48;5.13;;;;;;;3.80;100.00;94341.44;5076998;28;20048;-61
2021/12/30 00:42:33;;;;;;;9.32;5.13;;;;;;;3.79;100.00;94345.00;5078847;28;20059;-62
2021/12/30 00:45:00;;;;;;;7.50;4.32;;;;;;;3.76;100.00;94340.25;5074107;28;20429;-62
2021/12/30 00:47:27;;;;;;;8.80;4.75;;;;;;;3.74;100.00;94342.25;5068079;28;20121;-62
2021/12/30 00:49:54;;;;;;;7.95;4.57;;;;;;;3.73;100.00;94345.81;5075471;28;20040;-62
2021/12/30 00:52:21;;;;;;;7.50;4.30;;;;;;;3.74;100.00;94352.53;5078622;28;20052;-62
2021/12/30 00:54:48;;;;;;;5.93;3.97;;;;;;;3.72;100.00;94349.38;5075530;28;20475;-62
2021/12/30 00:57:14;;;;;;;6.00;3.63;;;;;;;3.71;100.00;94343.44;5075401;28;20129;-62
2021/12/30 00:59:41;;;;;;;5.70;3.85;;;;;;;3.68;100.00;94358.50;5074747;28;20051;-62
2021/12/30 01:02:08;;;;;;;5.07;3.72;;;;;;;3.70;100.00;94356.50;5076265;28;20059;-62
2021/12/30 01:04:36;;;;;;;7.00;3.70;;;;;;;3.70;100.00;94359.09;5080132;28;20044;-62
2021/12/30 01:07:03;;;;;;;8.48;4.13;;;;;;;3.65;100.00;94359.69;5072736;28;20048;-62
2021/12/30 01:09:30;;;;;;;9.40;3.88;;;;;;;3.58;100.00;94364.84;5079816;28;20421;-63
2021/12/30 01:11:58;;;;;;;6.80;3.60;;;;;;;3.59;100.00;94363.84;5077007;28;20044;-63
2021/12/30 01:14:29;;;;;;;7.13;4.32;;;;;;;3.56;100.00;94371.94;5074977;28;20379;-62
2021/12/30 01:17:00;;;;;;;6.75;4.25;;;;;;;3.54;100.00;94368.78;5073012;28;20052;-62
2021/12/30 01:19:45;;;;;;;7.65;4.38;;;;;;;3.55;100.00;94365.25;5071389;28;20040;-62
2021/12/30 01:22:16;;;;;;;7.03;3.92;;;;;;;3.54;100.00;94375.72;5071509;28;20059;-62
2021/12/30 01:24:43;;;;;;;5.95;4.00;;;;;;;3.51;100.00;94364.06;5073959;28;20033;-62
2021/12/30 01:27:10;;;;;;;3.63;2.80;;;;;;;3.49;100.00;94365.22;5074110;28;20056;-62
2021/12/30 01:29:38;;;;;;;9.05;4.90;;;;;;;3.48;100.00;94368.81;5078761;28;20048;-62
2021/12/30 01:32:06;;;;;;;14.60;4.63;;;;;;;3.44;100.00;94376.91;5075691;28;20040;-62
2021/12/30 01:34:34;;;;;;;6.43;4.47;;;;;;;3.45;100.00;94370.75;5072083;28;20048;-62
2021/12/30 01:37:03;;;;;;;6.90;3.50;;;;;;;3.47;100.00;94378.28;5071936;28;20044;-62
2021/12/30 01:39:32;;;;;;;8.60;4.70;;;;;;;3.52;100.00;94388.81;5079756;28;20043;-62
2021/12/30 01:41:59;;;;;;;7.80;4.90;;;;;;;3.47;100.00;94388.59;5074175;28;20040;-62
2021/12/30 01:44:28;;;;;;;5.97;4.13;;;;;;;3.47;100.00;94388.59;5073318;28;20098;-62
2021/12/30 01:46:55;;;;;;;9.43;5.40;;;;;;;3.44;100.00;94389.00;5078483;28;20040;-62
2021/12/30 01:49:24;;;;;;;7.45;4.07;;;;;;;3.38;100.00;94384.63;5076554;28;20524;-62
2021/12/30 01:51:53;;;;;;;6.30;4.40;;;;;;;3.39;100.00;94381.06;5071079;28;20037;-62
2021/12/30 01:54:22;;;;;;;8.27;5.07;;;;;;;3.38;100.00;94387.19;5073844;28;20645;-62
2021/12/30 01:56:51;;;;;;;6.20;3.72;;;;;;;3.36;100.00;94386.63;5074763;28;20047;-62
2021/12/30 01:59:20;;;;;;;6.60;3.97;;;;;;;3.36;100.00;94384.03;5067640;28;20452;-62
2021/12/30 02:01:53;;;;;;;7.38;5.07;;;;;;;3.33;100.00;94387.00;5073661;28;20044;-62
2021/12/30 02:04:24;;;;;;;7.38;4.03;;;;;;;3.32;100.00;94386.22;5073808;28;20050;-61
2021/12/30 02:06:52;;;;;;;10.88;4.93;;;;;;;3.32;100.00;94388.78;5075922;28;20036;-62
2021/12/30 02:09:20;;;;;;;6.93;3.83;;;;;;;3.32;100.00;94390.56;5072627;28;20091;-62
2021/12/30 02:11:48;;;;;;;8.48;4.68;;;;;;;3.30;100.00;94387.41;5074245;28;20053;-62
2021/12/30 02:14:16;;;;;;;6.10;3.20;;;;;;;3.20;100.00;94378.25;5073256;28;20058;-62
2021/12/30 02:16:44;;;;;;;7.38;4.05;;;;;;;3.29;100.00;94396.09;5076182;28;20040;-62
2021/12/30 02:19:11;;;;;;;8.23;4.47;;;;;;;3.29;100.00;94390.97;5071795;28;20500;-62
2021/12/30 02:21:38;;;;;;;7.10;3.92;;;;;;;3.28;100.00;94399.66;5073174;28;20047;-62
2021/12/30 02:24:05;;;;;;;9.80;4.63;;;;;;;3.29;100.00;94398.69;5070843;28;20058;-62
2021/12/30 02:26:32;;;;;;;6.38;3.88;;;;;;;3.30;100.00;94401.06;5072220;28;20039;-62
2021/12/30 02:28:59;;;;;;;6.82;4.13;;;;;;;3.33;100.00;94402.44;5069811;28;20038;-62
2021/12/30 02:31:29;;;;;;;7.40;3.92;;;;;;;3.30;100.00;94397.72;5071582;28;20051;-62
2021/12/30 02:33:57;;;;;;;6.75;4.03;;;;;;;3.28;100.00;94402.22;5073038;28;20131;-62
2021/12/30 02:36:28;;;;;;;4.60;3.33;;;;;;;3.29;100.00;94406.41;5074993;28;20047;-62
2021/12/30 02:38:56;;;;;;;6.07;3.80;;;;;;;3.28;100.00;94410.78;5071772;28;20049;-62
2021/12/30 02:41:23;;;;;;;5.82;3.83;;;;;;;3.28;100.00;94410.78;5068460;28;20401;-62
2021/12/30 02:43:50;;;;;;;5.43;3.47;;;;;;;3.27;100.00;94408.38;5073445;28;20039;-62
2021/12/30 02:46:22;;;;;;;6.68;3.38;;;;;;;3.27;100.00;94408.38;5068827;28;20045;-63
2021/12/30 02:48:52;;;;;;;5.35;2.88;;;;;;;3.29;100.00;94416.69;5074169;28;20097;-63
2021/12/30 02:51:21;;;;;;;6.55;3.40;;;;;;;3.33;100.00;94417.88;5074828;28;20445;-63
2021/12/30 02:53:49;;;;;;;7.07;3.72;;;;;;;3.30;100.00;94413.16;5072445;28;20044;-63
2021/12/30 02:56:16;;;;;;;5.47;3.90;;;;;;;3.32;100.00;94426.63;5077752;28;20040;-63
2021/12/30 02:58:43;;;;;;;5.20;3.97;;;;;;;3.34;100.00;94425.41;5071412;28;20044;-63
2021/12/30 03:01:13;;;;;;;7.28;3.55;;;;;;;3.37;100.00;94421.69;5066949;28;20043;-63
2021/12/30 03:03:40;;;;;;;9.10;4.07;;;;;;;3.27;100.00;94411.75;5069737;28;20032;-63
2021/12/30 03:06:09;;;;;;;9.95;4.30;;;;;;;3.32;100.00;94431.75;5073830;28;20398;-63
2021/12/30 03:08:37;;;;;;;7.10;4.10;;;;;;;3.35;100.00;94437.31;5074791;28;20041;-63
2021/12/30 03:11:06;;;;;;;7.93;4.13;;;;;;;3.31;100.00;94437.88;5067820;28;20636;-63
2021/12/30 03:13:35;;;;;;;8.35;4.13;;;;;;;3.29;100.00;94437.28;5066008;28;20131;-63
2021/12/30 03:16:07;;;;;;;7.78;3.55;;;;;;;3.29;100.00;94432.94;5068621;28;20045;-62
2021/12/30 03:18:36;;;;;;;6.28;3.72;;;;;;;3.31;100.00;94440.47;5071809;28;20403;-63
2021/12/30 03:21:06;;;;;;;8.68;4.10;;;;;;;3.30;100.00;94444.03;5070529;28;20056;-63
2021/12/30 03:23:33;;;;;;;8.60;4.53;;;;;;;3.32;100.00;94442.84;5070093;28;20063;-62
2021/12/30 03:26:01;;;;;;;6.57;3.92;;;;;;;3.35;100.00;94449.38;5068202;28;20045;-63
2021/12/30 03:28:28;;;;;;;5.65;3.42;;;;;;;3.32;100.00;94452.34;5067683;28;20036;-63
2021/12/30 03:30:58;;;;;;;5.50;3.47;;;;;;;3.33;100.00;94457.31;5077357;28;20040;-62
2021/12/30 03:33:29;;;;;;;5.38;2.88;;;;;;;3.27;100.00;94444.41;5071550;28;20044;-63
2021/12/30 03:35:59;;;;;;;4.65;3.63;;;;;;;3.35;100.00;94462.25;5073550;28;20040;-63
2021/12/30 03:38:30;;;;;;;3.88;2.88;;;;;;;3.37;100.00;94460.28;5073301;28;20044;-63
2021/12/30 03:40:59;;;;;;;4.63;2.85;;;;;;;3.38;100.00;94461.84;5072027;28;20513;-63
2021/12/30 03:43:26;;;;;;;8.23;3.78;;;;;;;3.36;100.00;94469.00;5074038;28;20094;-62
2021/12/30 03:45:53;;;;;;;7.78;4.35;;;;;;;3.39;100.00;94461.66;5069824;28;20036;-63
2021/12/30 03:48:20;;;;;;;8.13;4.57;;;;;;;3.47;100.00;94465.06;5071456;28;20517;-63
2021/12/30 03:50:49;;;;;;;6.22;3.67;;;;;;;3.50;100.00;94470.59;5068056;28;20506;-62
2021/12/30 03:53:16;;;;;;;7.53;4.35;;;;;;;3.48;100.00;94467.44;5067334;28;20417;-64
2021/12/30 03:55:46;;;;;;;5.68;3.40;;;;;;;3.54;100.00;94474.38;5070447;28;20047;-63
2021/12/30 03:58:13;;;;;;;4.40;2.80;;;;;;;3.56;100.00;94480.09;5075063;28;20459;-62
2021/12/30 04:00:40;;;;;;;5.18;3.85;;;;;;;3.63;100.00;94486.06;5080954;28;20406;-63
2021/12/30 04:03:07;;;;;;;4.22;2.85;;;;;;;3.59;100.00;94490.03;5073966;28;20739;-63
2021/12/30 04:05:34;;;;;;;5.05;2.90;;;;;;;3.56;100.00;94495.56;5078013;28;20046;-63
2021/12/30 04:08:01;;;;;;;3.75;2.38;;;;;;;3.59;100.00;94492.59;5077214;28;20452;-63
2021/12/30 04:10:27;;;;;;;4.13;3.05;;;;;;;3.61;100.00;94493.19;5080342;28;20525;-63
2021/12/30 04:12:56;;;;;;;6.70;3.08;;;;;;;3.54;100.00;94502.69;5077500;28;20564;-63
2021/12/30 04:15:23;;;;;;;5.40;2.85;;;;;;;3.64;100.00;94508.28;5071342;28;20040;-64
2021/12/30 04:17:50;;;;;;;12.63;4.70;;;;;;;3.60;100.00;94508.84;5074808;28;20040;-64
2021/12/30 04:20:17;;;;;;;4.40;2.88;;;;;;;3.61;100.00;94518.94;5080192;28;20155;-64
2021/12/30 04:22:44;;;;;;;4.97;2.95;;;;;;;3.57;100.00;94517.75;5075869;28;20498;-62
2021/12/30 04:25:14;;;;;;;6.22;2.42;;;;;;;3.61;100.00;94521.53;5074244;28;20059;-62
2021/12/30 04:27:42;;;;;;;6.03;2.38;;;;;;;3.60;100.00;94530.25;5076349;28;20693;-62
2021/12/30 04:30:12;;;;;;;5.18;2.85;;;;;;;3.61;100.00;94541.34;5071959;28;20041;-62
2021/12/30 04:32:39;;;;;;;6.80;2.10;;;;;;;3.63;100.00;94547.88;5072161;28;20036;-62
2021/12/30 04:35:07;;;;;;;6.13;2.42;;;;;;;3.58;100.00;94545.13;5076250;28;20052;-64
2021/12/30 04:37:34;;;;;;;4.45;1.90;;;;;;;3.62;100.00;94545.53;5078645;28;20525;-64
2021/12/30 04:40:04;;;;;;;3.45;1.65;;;;;;;3.64;100.00;94554.63;5072556;28;20040;-62
2021/12/30 04:42:31;;;;;;;4.18;1.85;;;;;;;3.71;100.00;94556.41;5071428;28;20211;-62
2021/12/30 04:44:58;;;;;;;5.15;2.47;;;;;;;3.69;100.00;94551.47;5077340;28;20044;-62
2021/12/30 04:47:25;;;;;;;3.53;1.95;;;;;;;3.62;100.00;94561.75;5072960;28;20119;-62
2021/12/30 04:49:54;;;;;;;3.47;1.90;;;;;;;3.63;100.00;94563.31;5074440;28;20390;-62
2021/12/30 04:52:21;;;;;;;1.65;1.05;;;;;;;3.61;100.00;94560.16;5073671;28;20041;-62
2021/12/30 04:54:48;;;;;;;1.38;1.05;;;;;;;3.57;100.00;94569.25;5074741;28;20510;-62
2021/12/30 04:57:15;;;;;;;0.60;0.50;;;;;;;3.40;100.00;94568.00;5076482;28;20041;-64
2021/12/30 04:59:43;;;;;;;0.63;0.38;;;;;;;3.25;100.00;94566.38;5071353;28;20051;-63
2021/12/30 05:02:10;;;;;;;0.50;0.32;;;;;;;3.21;100.00;94580.59;5069059;28;20036;-64
2021/12/30 05:04:37;;;;;;;0.28;0.22;;;;;;;3.16;100.00;94577.81;5076048;28;20433;-64
2021/12/30 05:07:04;;;;;;;4.15;0.40;;;;;;;3.12;100.00;94586.91;5077425;28;20044;-64
2021/12/30 05:09:32;;;;;;;0.40;0.30;;;;;;;3.10;100.00;94583.72;5076120;28;20048;-64
2021/12/30 05:11:59;;;;;;;0.47;0.40;;;;;;;3.09;100.00;94592.41;5075413;28;20052;-64
2021/12/30 05:14:26;;;;;;;0.63;0.40;;;;;;;3.09;100.00;94597.56;5075903;28;20391;-64
2021/12/30 05:16:55;;;;;;;0.55;0.40;;;;;;;3.00;100.00;94601.28;5071017;28;20442;-64
2021/12/30 05:19:22;;;;;;;1.02;0.32;;;;;;;2.97;100.00;94604.22;5072509;28;20483;-63
2021/12/30 05:21:49;;;;;;;1.13;0.68;;;;;;;2.97;100.00;94609.38;5077561;28;20040;-63
2021/12/30 05:24:16;;;;;;;1.10;0.88;;;;;;;2.99;100.00;94617.69;5076396;28;20505;-62
2021/12/30 05:26:43;;;;;;;4.20;2.03;;;;;;;2.99;100.00;94622.84;5069069;28;20041;-64
2021/12/30 05:29:10;;;;;;;1.05;0.90;;;;;;;2.96;100.00;94628.38;5075569;28;20040;-63
2021/12/30 05:31:37;;;;;;;3.25;1.75;;;;;;;2.90;100.00;94624.78;5074027;28;20055;-64
2021/12/30 05:34:04;;;;;;;1.33;0.90;;;;;;;2.91;100.00;94630.72;5072541;28;20044;-64
2021/12/30 05:36:31;;;;;;;2.92;1.20;;;;;;;2.86;100.00;94623.53;5074035;28;20541;-64
2021/12/30 05:38:58;;;;;;;1.95;0.90;;;;;;;2.62;100.00;94607.56;5077514;28;20044;-64
2021/12/30 05:41:27;;;;;;;1.63;0.82;;;;;;;2.78;100.00;94636.56;5075167;28;20048;-63
2021/12/30 05:43:54;;;;;;;1.50;0.90;;;;;;;2.74;100.00;94643.84;5073250;28;20111;-63
2021/12/30 05:46:21;;;;;;;0.85;0.80;;;;;;;2.75;100.00;94645.44;5072486;28;20029;-64
2021/12/30 05:48:48;;;;;;;1.10;0.70;;;;;;;2.75;100.00;94658.28;5068131;28;20059;-64
2021/12/30 05:51:15;;;;;;;0.93;0.47;;;;;;;2.79;100.00;94651.81;5068503;28;20388;-63
2021/12/30 05:53:42;;;;;;;3.22;1.88;;;;;;;2.79;100.00;94656.16;5073645;28;20048;-64
2021/12/30 05:56:09;;;;;;;2.40;1.30;;;;;;;2.77;100.00;94656.31;5072953;28;20047;-64
2021/12/30 05:58:36;;;;;;;3.78;2.15;;;;;;;2.78;100.00;94657.94;5070019;28;20041;-63
2021/12/30 06:01:03;;;;;;;4.18;1.88;;;;;;;2.76;100.00;94659.91;5078567;28;20055;-64
2021/12/30 06:03:30;;;;;;;7.18;3.83;;;;;;;2.74;100.00;94667.00;5069314;28;20111;-64
2021/12/30 06:05:57;;;;;;;3.72;2.20;;;;;;;2.76;100.00;94675.31;5068714;28;20087;-63
2021/12/30 06:08:24;;;;;;;2.55;1.75;;;;;;;2.76;100.00;94675.31;5074720;28;20051;-64
2021/12/30 06:10:51;;;;;;;3.42;1.67;;;;;;;2.75;100.00;94683.22;5073123;28;20055;-64
2021/12/30 06:13:19;;;;;;;24.30;11.38;;;;;;;2.75;100.00;94678.88;5075929;28;20127;-64
2021/12/30 06:15:46;;;;;;;3.72;1.38;;;;;;;2.75;100.00;94694.31;5067606;28;20064;-64
2021/12/30 06:18:12;;;;;;;1.77;1.10;;;;;;;2.72;100.00;94702.41;5073499;28;20045;-64
2021/12/30 06:20:39;;;;;;;1.67;0.73;;;;;;;2.73;100.00;94709.13;5079013;28;20036;-64
2021/12/30 06:23:06;;;;;;;9.95;3.35;;;;;;;2.73;100.00;94721.97;5074566;28;20055;-64
2021/12/30 06:25:33;;;;;;;1.65;1.08;;;;;;;2.73;100.00;94716.84;5074395;28;20036;-62
2021/12/30 06:28:00;;;;;;;1.70;0.95;;;;;;;2.78;100.00;94731.72;5072978;28;20487;-64
2021/12/30 06:30:27;;;;;;;1.02;0.70;;;;;;;2.80;100.00;94733.13;5074455;28;20402;-64
2021/12/30 06:32:54;;;;;;;4.93;2.20;;;;;;;2.82;100.00;94741.44;5069013;28;20041;-64
2021/12/30 06:35:21;;;;;;;11.60;4.35;;;;;;;2.83;100.00;94743.06;5070680;28;20420;-64
2021/12/30 06:37:48;;;;;;;13.50;5.55;;;;;;;2.81;100.00;94750.16;5069130;28;20048;-64
2021/12/30 06:40:15;;;;;;;33.45;8.63;;;;;;;2.78;100.00;94758.25;5078917;28;20508;-64
2021/12/30 06:42:43;;;;;;;15.52;5.13;;;;;;;2.82;100.00;94762.03;5073373;28;20528;-62
2021/12/30 06:45:12;;;;;;;12.93;3.72;;;;;;;2.84;100.00;94765.22;5070886;28;20041;-64
2021/12/30 06:47:43;;;;;;;4.00;1.27;;;;;;;2.85;100.00;94769.38;5076930;28;20044;-64
2021/12/30 06:50:13;;;;;;;3.28;1.73;;;;;;;2.81;100.00;94769.91;5075624;28;20048;-64
2021/12/30 06:52:41;;;;;;;1.38;0.93;;;;;;;2.82;100.00;94777.47;5076354;28;20498;-64
2021/12/30 06:55:10;;;;;;;0.43;0.40;;;;;;;2.77;100.00;94773.84;5073995;28;20044;-64
2021/12/30 06:57:36;;;;;;;1.00;0.68;;;;;;;2.71;100.00;94777.97;5072101;28;20045;-64
2021/12/30 07:00:05;;;;;;;0.50;0.40;;;;;;;2.68;100.00;94791.16;5071879;28;20051;-64
2021/12/30 07:02:33;;;;;;;0.88;0.68;;;;;;;2.61;100.00;94796.25;5069393;28;20036;-64
2021/12/30 07:05:01;;;;;;;1.40;1.02;;;;;;;2.49;100.00;94787.44;5074317;28;20085;-64
2021/12/30 07:07:27;;;;;;;0.32;0.25;;;;;;;2.55;100.00;94793.63;5075881;28;20037;-64
2021/12/30 07:09:54;;;;;;;0.40;0.35;;;;;;;2.56;100.00;94813.22;5080531;28;20040;-63
2021/12/30 07:12:21;;;;;;;1.40;0.60;;;;;;;2.59;100.00;94820.56;5072643;28;20040;-64
2021/12/30 07:14:48;;;;;;;0.75;0.40;;;;;;;2.64;100.00;94831.88;5074443;28;20051;-64
2021/12/30 07:17:15;;;;;;;0.98;0.57;;;;;;;2.65;100.00;94833.50;5069544;28;20067;-64
2021/12/30 07:19:42;;;;;;;1.80;1.00;;;;;;;2.67;100.00;94841.03;5077433;28;20032;-64
2021/12/30 07:22:09;;;;;;;0.50;0.20;;;;;;;2.72;100.00;94849.00;5074844;28;20094;-64
2021/12/30 07:24:56;;;;;;;1.77;0.70;;;;;;;2.73;100.00;94857.50;5069423;28;20098;-64
2021/12/30 07:27:23;;;;;;;1.52;0.73;;;;;;;2.75;100.00;94869.19;5080704;28;20046;-64
2021/12/30 07:29:50;;;;;;;0.60;0.43;;;;;;;2.75;99.87;94861.47;5078853;28;20425;-64
2021/12/30 07:32:17;;;;;;;0.52;0.45;;;;;;;2.74;100.00;94852.19;5077559;28;20045;-64
2021/12/30 07:34:44;;;;;;;0.65;0.43;;;;;;;2.78;100.00;94862.91;5078906;28;20052;-64
2021/12/30 07:37:14;;;;;;;0.93;0.60;;;;;;;2.81;99.98;94865.91;5077753;28;20047;-64
2021/12/30 07:39:41;;;;;;;1.63;0.50;;;;;;;2.84;99.92;94870.69;5078108;28;20049;-64
2021/12/30 07:42:09;;;;;;;0.82;0.50;;;;;;;2.86;99.75;94873.88;5071960;28;20599;-64
2021/12/30 07:44:37;;;;;;;0.60;0.60;;;;;;;2.96;100.00;94880.50;5078350;28;20055;-64
2021/12/30 07:47:15;;;;;;;0.57;0.45;;;;;;;2.99;99.71;94874.97;5070903;28;20052;-64
2021/12/30 07:49:42;;;;;;;0.75;0.70;;;;;;;2.99;98.90;94880.13;5080206;28;20044;-64
2021/12/30 07:52:09;;;;;;;0.45;0.43;;;;;;;2.96;98.81;94885.66;5075318;28;20123;-63
2021/12/30 07:54:36;;;;;;;0.60;0.60;;;;;;;2.96;98.85;94888.22;5073482;28;20051;-64
2021/12/30 07:57:03;;;;;;;0.70;0.68;;;;;;;2.95;98.54;94889.19;5077269;28;20040;-63
2021/12/30 07:59:30;;;;;;;1.00;0.63;;;;;;;2.97;99.74;94897.53;5075488;28;20052;-64
2021/12/30 08:01:58;;;;;;;0.90;0.82;;;;;;;3.05;99.47;94900.00;5075260;28;20040;-64
2021/12/30 08:04:25;;;;;;;1.42;0.90;;;;;;;3.09;97.87;94901.22;5073653;28;20053;-64
2021/12/30 08:06:52;;;;;;;0.70;0.60;;;;;;;3.00;97.47;94907.47;5070937;28;20041;-62
2021/12/30 08:09:19;;;;;;;3.40;1.50;;;;;;;3.09;98.15;94911.53;5071415;28;20048;-63
2021/12/30 08:11:46;;;;;;;1.23;0.73;;;;;;;3.10;97.25;94912.31;5074991;28;20500;-63
2021/12/30 08:14:14;;;;;;;0.60;0.50;;;;;;;3.02;96.11;94918.38;5077557;28;20547;-63
2021/12/30 08:16:40;;;;;;;0.60;0.52;;;;;;;3.06;97.35;94917.03;5074175;28;20048;-63
2021/12/30 08:19:07;;;;;;;0.77;0.50;;;;;;;3.08;97.12;94909.94;5077782;28;20052;-63
2021/12/30 08:21:34;;;;;;;1.13;0.52;;;;;;;3.08;96.54;94920.22;5076302;28;20051;-63
2021/12/30 08:24:01;;;;;;;0.40;0.35;;;;;;;3.06;96.85;94917.03;5078317;28;20552;-63
2021/12/30 08:26:28;;;;;;;0.70;0.47;;;;;;;3.08;96.95;94920.22;5074070;28;20060;-64
2021/12/30 08:28:55;;;;;;;1.48;1.20;;;;;;;3.14;98.51;94914.34;5084132;28;20050;-63
2021/12/30 08:31:22;;;;;;;1.63;1.25;;;;;;;3.25;98.96;94926.72;5073909;28;20044;-63
2021/12/30 08:33:49;;;;;;;4.05;2.33;;;;;;;3.31;96.34;94919.25;5076307;28;20055;-63
2021/12/30 08:36:16;;;;;;;8.00;4.53;;;;;;;3.39;97.74;94929.44;5069002;28;20058;-63
2021/12/30 08:38:42;;;;;;;3.38;1.85;;;;;;;3.59;98.12;94933.00;5072613;28;20051;-63
2021/12/30 08:41:09;;;;;;;3.60;1.52;;;;;;;3.79;97.52;94940.09;5075772;28;20048;-63
2021/12/30 08:43:36;;;;;;;0.90;0.75;;;;;;;3.96;96.12;94944.03;5076427;28;20044;-63
2021/12/30 08:46:03;;;;;;;2.30;1.95;;;;;;;4.09;95.71;94947.66;5074506;28;20052;-63
2021/12/30 08:48:37;;;;;;;6.93;4.10;;;;;;;4.11;93.32;94948.28;5075187;28;20049;-63
2021/12/30 08:51:05;;;;;;;8.25;4.05;;;;;;;4.00;92.50;94937.50;5078477;28;20060;-63
2021/12/30 08:53:32;;;;;;;6.28;3.67;;;;;;;4.11;93.17;94956.03;5074739;28;20037;-63
2021/12/30 08:55:59;;;;;;;1.67;1.23;;;;;;;4.10;91.41;94959.56;5075760;28;20056;-64
2021/12/30 08:58:26;;;;;;;1.38;0.65;;;;;;;4.11;92.42;94967.13;5072944;28;20040;-63
2021/12/30 09:00:52;;;;;;;2.70;1.45;;;;;;;4.00;91.78;94971.00;5071413;28;20056;-63
2021/12/30 09:03:20;;;;;;;1.45;1.02;;;;;;;3.88;92.34;94971.69;5072643;28;20071;-62
2021/12/30 09:05:46;;;;;;;1.80;1.27;;;;;;;3.90;91.65;94967.94;5072678;28;20048;-63
2021/12/30 09:08:14;;;;;;;2.20;1.90;;;;;;;3.87;92.78;94970.91;5071304;28;20037;-62
2021/12/30 09:10:45;;;;;;;1.00;0.90;;;;;;;3.74;91.93;94975.94;5077169;28;20070;-63
2021/12/30 09:13:15;;;;;;;2.70;2.00;;;;;;;3.70;93.28;94982.44;5073354;28;20041;-63
2021/12/30 09:15:42;;;;;;;2.40;1.33;;;;;;;3.75;93.26;94978.31;5074774;28;20436;-63
2021/12/30 09:18:10;;;;;;;19.50;6.65;;;;;;;3.78;93.26;94997.75;5072665;28;20158;-63
2021/12/30 09:20:39;;;;;;;1.85;1.20;;;;;;;3.67;91.98;94995.69;5072973;28;20433;-63
2021/12/30 09:23:07;;;;;;;2.78;1.40;;;;;;;3.65;93.42;94998.44;5076238;28;20059;-62
2021/12/30 09:25:36;;;;;;;2.72;1.52;;;;;;;3.63;94.09;95006.34;5075651;28;20044;-63
2021/12/30 09:28:04;;;;;;;1.10;0.80;;;;;;;3.67;92.51;95000.81;5077430;28;20056;-63
2021/12/30 09:30:31;;;;;;;4.18;2.05;;;;;;;3.65;92.75;95006.16;5072440;28;20040;-62
2021/12/30 09:33:00;;;;;;;2.55;1.17;;;;;;;3.58;90.43;95019.00;5073677;28;20060;-62
2021/12/30 09:35:28;;;;;;;4.10;1.83;;;;;;;3.62;92.09;95007.34;5078454;28;20421;-63
2021/12/30 09:37:56;;;;;;;7.97;3.50;;;;;;;3.58;92.02;95024.13;5072937;28;20056;-61
2021/12/30 09:40:23;;;;;;;27.70;10.95;;;;;;;3.58;92.92;95021.56;5077550;28;20781;-63
2021/12/30 09:42:55;;;;;;;43.58;17.90;;;;;;;3.66;93.37;95010.34;5073587;28;20037;-63
2021/12/30 09:45:27;;;;;;;7.63;3.88;;;;;;;3.66;91.34;95009.56;5078183;28;20534;-63
2021/12/30 09:47:57;;;;;;;8.38;4.45;;;;;;;3.69;93.06;95009.16;5071408;28;20049;-63
2021/12/30 09:50:32;;;;;;;5.07;3.05;;;;;;;3.69;91.74;95009.16;5067248;28;20067;-63
2021/12/30 09:53:00;;;;;;;7.20;4.13;;;;;;;3.67;90.78;95022.22;5073226;28;20066;-65
2021/12/30 09:55:30;;;;;;;7.07;3.10;;;;;;;3.69;89.17;95016.88;5074588;28;20494;-63
2021/12/30 09:57:59;;;;;;;4.57;2.97;;;;;;;3.81;90.66;95018.00;5074849;28;20048;-63
2021/12/30 10:00:27;;;;;;;2.05;1.40;;;;;;;3.94;89.84;95020.72;5076322;28;20033;-63
2021/12/30 10:02:54;;;;;;;0.95;0.57;;;;;;;4.00;88.81;95011.44;5071768;28;20090;-62
2021/12/30 10:05:26;;;;;;;0.77;0.43;;;;;;;4.22;89.03;95015.59;5066482;28;20701;-62
2021/12/30 10:08:14;;;;;;;1.23;0.80;;;;;;;4.36;86.39;95021.66;5062769;28;20059;-61
2021/12/30 10:10:44;;;;;;;1.42;0.63;;;;;;;4.44;86.18;95023.28;5072254;28;20060;-64
2021/12/30 10:13:14;;;;;;;1.00;0.52;;;;;;;4.54;86.61;95017.81;5072525;28;20139;-63
2021/12/30 10:15:43;;;;;;;0.52;0.50;;;;;;;4.69;85.86;95021.06;5064488;28;20052;-63
2021/12/30 10:18:11;;;;;;;1.45;0.90;;;;;;;4.85;85.42;95024.34;5068141;28;20067;-64
2021/12/30 10:20:40;;;;;;;1.05;0.70;;;;;;;4.95;84.69;95029.94;5067369;28;20048;-64
2021/12/30 10:23:13;;;;;;;1.10;1.00;;;;;;;5.07;83.74;95023.25;5070310;28;20506;-64
2021/12/30 10:25:43;;;;;;;2.75;1.20;;;;;;;5.10;84.13;95020.31;5071158;28;20051;-64
2021/12/30 10:28:35;;;;;;;2.85;2.03;;;;;;;5.33;84.17;95011.44;5066885;28;20060;-63
2021/12/30 10:31:11;;;;;;;1.80;1.10;;;;;;;5.44;84.04;95018.66;5071730;28;20028;-62
2021/12/30 10:34:06;;;;;;;0.98;0.40;;;;;;;5.59;82.65;95015.13;5067801;28;20490;-63
2021/12/30 10:36:43;;;;;;;1.48;0.90;;;;;;;5.73;81.27;95022.69;5072729;28;20490;-63
2021/12/30 10:39:21;;;;;;;1.10;0.75;;;;;;;5.82;79.93;95017.34;5077350;28;20063;-63
2021/12/30 10:41:52;;;;;;;44.10;13.18;;;;;;;5.72;78.76;95020.31;5074290;28;20040;-62
2021/12/30 10:44:20;;;;;;;44.97;12.95;;;;;;;5.44;78.43;95028.97;5070071;28;20578;-63
2021/12/30 10:46:48;;;;;;;34.75;12.13;;;;;;;5.23;80.21;95029.09;5072429;28;20043;-63
2021/12/30 10:49:26;;;;;;;7.70;3.80;;;;;;;5.29;79.95;95020.56;5071381;28;20527;-62
2021/12/30 10:51:57;;;;;;;10.88;4.90;;;;;;;5.36;81.20;95021.41;5074204;28;20058;-60
2021/12/30 10:54:33;;;;;;;7.60;3.50;;;;;;;5.28;82.45;95016.41;5071936;28;20493;-58
2021/12/30 10:57:02;;;;;;;4.95;2.05;;;;;;;5.38;81.68;95016.81;5076864;28;20029;-61
2021/12/30 10:59:41;;;;;;;3.85;2.80;;;;;;;5.43;81.85;95011.88;5071116;28;20057;-62
2021/12/30 11:02:17;;;;;;;2.20;1.20;;;;;;;5.40;81.28;95012.25;5078506;28;20051;-62
2021/12/30 11:04:45;;;;;;;2.80;2.13;;;;;;;5.24;82.78;95015.19;5074752;28;20051;-61
2021/12/30 11:07:16;;;;;;;6.78;3.20;;;;;;;5.04;82.57;95002.19;5078110;28;20039;-62
2021/12/30 11:09:55;;;;;;;5.40;2.35;;;;;;;5.23;84.80;95021.34;5074054;28;20048;-62
2021/12/30 11:12:38;;;;;;;6.50;1.88;;;;;;;5.26;82.39;95026.13;5074731;28;20052;-62
2021/12/30 11:15:23;;;;;;;1.73;1.15;;;;;;;5.27;81.06;95027.72;5074150;28;20067;-62
2021/12/30 11:17:50;;;;;;;12.27;2.95;;;;;;;5.08;83.61;95030.03;5070191;28;20049;-62
2021/12/30 11:20:19;;;;;;;4.57;2.72;;;;;;;5.04;85.74;95023.66;5078698;28;20453;-63
2021/12/30 11:22:49;;;;;;;33.03;11.25;;;;;;;5.03;86.90;95027.22;5073729;28;20037;-63
2021/12/30 11:25:20;;;;;;;10.63;5.15;;;;;;;4.84;86.44;95033.06;5071350;28;20440;-63
2021/12/30 11:27:47;;;;;;;29.77;7.43;;;;;;;4.89;87.26;95046.19;5071560;28;20040;-61
2021/12/30 11:30:16;;;;;;;3.22;1.48;;;;;;;4.83;86.00;95046.97;5074800;28;20488;-63
2021/12/30 11:32:48;;;;;;;5.32;2.60;;;;;;;4.90;86.13;95052.97;5076196;28;20049;-62
2021/12/30 11:35:18;;;;;;;3.85;2.30;;;;;;;5.03;87.04;95063.34;5071430;28;20679;-63
2021/12/30 11:37:46;;;;;;;4.53;3.45;;;;;;;4.91;87.22;95067.47;5075651;28;20056;-63
2021/12/30 11:40:17;;;;;;;9.82;3.10;;;;;;;4.78;88.38;95061.22;5080431;28;20040;-62
2021/12/30 11:42:47;;;;;;;20.48;3.97;;;;;;;4.53;89.04;95054.91;5076521;28;20036;-62